<?xml version="1.0" encoding="UTF-8" standalone="no" ?>
<gpx xmlns="http://www.topografix.com/GPX/1/1" xmlns:xsi="http://www.w3.org/2001/XMLSchema-instance" xsi:schemaLocation="http://www.topografix.com/GPX/1/1 http://www.topografix.com/GPX/1/1/gpx.xsd" version="1.1" creator="VisuGPX - https://www.visugpx.com">
  <metadata>
    <name>Argentina</name>
    <desc><![CDATA[Downloaded from eMap Software Version 2.75]]></desc>
  </metadata>
  <trk>
    <name><![CDATA[Argentina_88]]></name>
    <extensions>
      <line xmlns="http://www.topografix.com/GPX/gpx_style/0/2">
        <color>ff0000</color>
        <opacity>0.78</opacity>
        <width>0.6000</width>
      </line>
    </extensions>
    <trkseg>
      <trkpt lat="44.19493" lon="6.86592">
        <ele>2076.104492</ele>
        <time>2008-08-10T11:09:18Z</time>
      </trkpt>
      <trkpt lat="44.19491" lon="6.86616">
        <ele>2090.043457</ele>
        <time>2008-08-10T11:09:21Z</time>
      </trkpt>
      <trkpt lat="44.19491" lon="6.86633">
        <ele>2090.043457</ele>
        <time>2008-08-10T11:09:25Z</time>
      </trkpt>
      <trkpt lat="44.19489" lon="6.86633">
        <ele>2095.330811</ele>
        <time>2008-08-10T11:09:29Z</time>
      </trkpt>
      <trkpt lat="44.19487" lon="6.86648">
        <ele>2086.198242</ele>
        <time>2008-08-10T11:09:45Z</time>
      </trkpt>
      <trkpt lat="44.19487" lon="6.86648">
        <ele>2085.717529</ele>
        <time>2008-08-10T11:09:46Z</time>
      </trkpt>
      <trkpt lat="44.19484" lon="6.86654">
        <ele>2080.43042</ele>
        <time>2008-08-10T11:09:59Z</time>
      </trkpt>
      <trkpt lat="44.1948" lon="6.86673">
        <ele>2076.104492</ele>
        <time>2008-08-10T11:10:18Z</time>
      </trkpt>
      <trkpt lat="44.19489" lon="6.86673">
        <ele>2073.700928</ele>
        <time>2008-08-10T11:10:27Z</time>
      </trkpt>
      <trkpt lat="44.19493" lon="6.86686">
        <ele>2067.452393</ele>
        <time>2008-08-10T11:10:41Z</time>
      </trkpt>
      <trkpt lat="44.19487" lon="6.86688">
        <ele>2067.933105</ele>
        <time>2008-08-10T11:10:48Z</time>
      </trkpt>
      <trkpt lat="44.19472" lon="6.86708">
        <ele>2064.568604</ele>
        <time>2008-08-10T11:11:10Z</time>
      </trkpt>
      <trkpt lat="44.19469" lon="6.86723">
        <ele>2064.087891</ele>
        <time>2008-08-10T11:11:23Z</time>
      </trkpt>
      <trkpt lat="44.19469" lon="6.86753">
        <ele>2060.723389</ele>
        <time>2008-08-10T11:11:52Z</time>
      </trkpt>
      <trkpt lat="44.19467" lon="6.86766">
        <ele>2063.607178</ele>
        <time>2008-08-10T11:12:18Z</time>
      </trkpt>
      <trkpt lat="44.19478" lon="6.86766">
        <ele>2057.839355</ele>
        <time>2008-08-10T11:12:35Z</time>
      </trkpt>
      <trkpt lat="44.19478" lon="6.86789">
        <ele>2058.319824</ele>
        <time>2008-08-10T11:13:35Z</time>
      </trkpt>
      <trkpt lat="44.19484" lon="6.86813">
        <ele>2057.358643</ele>
        <time>2008-08-10T11:14:20Z</time>
      </trkpt>
      <trkpt lat="44.19489" lon="6.86828">
        <ele>2056.397217</ele>
        <time>2008-08-10T11:14:36Z</time>
      </trkpt>
      <trkpt lat="44.19493" lon="6.86837">
        <ele>2056.397217</ele>
        <time>2008-08-10T11:14:42Z</time>
      </trkpt>
      <trkpt lat="44.19493" lon="6.86839">
        <ele>2053.032715</ele>
        <time>2008-08-10T11:15:07Z</time>
      </trkpt>
      <trkpt lat="44.19504" lon="6.86849">
        <ele>2053.032715</ele>
        <time>2008-08-10T11:15:31Z</time>
      </trkpt>
      <trkpt lat="44.19521" lon="6.86873">
        <ele>2055.916504</ele>
        <time>2008-08-10T11:15:58Z</time>
      </trkpt>
      <trkpt lat="44.19547" lon="6.86918">
        <ele>2057.839355</ele>
        <time>2008-08-10T11:16:38Z</time>
      </trkpt>
      <trkpt lat="44.1957" lon="6.86972">
        <ele>2058.319824</ele>
        <time>2008-08-10T11:17:13Z</time>
      </trkpt>
      <trkpt lat="44.19581" lon="6.86995">
        <ele>2056.87793</ele>
        <time>2008-08-10T11:17:29Z</time>
      </trkpt>
      <trkpt lat="44.19613" lon="6.87043">
        <ele>2053.994141</ele>
        <time>2008-08-10T11:18:03Z</time>
      </trkpt>
      <trkpt lat="44.19645" lon="6.87081">
        <ele>2051.59082</ele>
        <time>2008-08-10T11:18:40Z</time>
      </trkpt>
      <trkpt lat="44.19671" lon="6.87128">
        <ele>2050.148926</ele>
        <time>2008-08-10T11:19:12Z</time>
      </trkpt>
      <trkpt lat="44.1968" lon="6.87139">
        <ele>2048.226074</ele>
        <time>2008-08-10T11:19:23Z</time>
      </trkpt>
      <trkpt lat="44.19701" lon="6.87195">
        <ele>2043.419434</ele>
        <time>2008-08-10T11:19:57Z</time>
      </trkpt>
      <trkpt lat="44.19708" lon="6.87208">
        <ele>2042.938721</ele>
        <time>2008-08-10T11:20:05Z</time>
      </trkpt>
      <trkpt lat="44.19735" lon="6.87253">
        <ele>2039.093506</ele>
        <time>2008-08-10T11:20:41Z</time>
      </trkpt>
      <trkpt lat="44.19753" lon="6.87296">
        <ele>2033.806396</ele>
        <time>2008-08-10T11:21:26Z</time>
      </trkpt>
      <trkpt lat="44.19757" lon="6.87304">
        <ele>2034.287109</ele>
        <time>2008-08-10T11:21:41Z</time>
      </trkpt>
      <trkpt lat="44.19785" lon="6.87328">
        <ele>2033.325684</ele>
        <time>2008-08-10T11:22:12Z</time>
      </trkpt>
      <trkpt lat="44.19787" lon="6.87334">
        <ele>2030.922607</ele>
        <time>2008-08-10T11:22:17Z</time>
      </trkpt>
      <trkpt lat="44.19815" lon="6.87349">
        <ele>2029.961182</ele>
        <time>2008-08-10T11:22:44Z</time>
      </trkpt>
      <trkpt lat="44.19834" lon="6.87349">
        <ele>1965.072266</ele>
        <time>2008-08-10T11:23:07Z</time>
      </trkpt>
      <trkpt lat="44.19838" lon="6.87349">
        <ele>1965.072266</ele>
        <time>2008-08-10T11:23:12Z</time>
      </trkpt>
      <trkpt lat="44.19856" lon="6.87375">
        <ele>2012.657471</ele>
        <time>2008-08-10T11:23:45Z</time>
      </trkpt>
      <trkpt lat="44.19851" lon="6.8739">
        <ele>2007.85083</ele>
        <time>2008-08-10T11:23:59Z</time>
      </trkpt>
      <trkpt lat="44.19849" lon="6.87399">
        <ele>2007.85083</ele>
        <time>2008-08-10T11:24:05Z</time>
      </trkpt>
      <trkpt lat="44.19845" lon="6.87405">
        <ele>2008.331299</ele>
        <time>2008-08-10T11:24:12Z</time>
      </trkpt>
      <trkpt lat="44.19841" lon="6.87429">
        <ele>2006.408691</ele>
        <time>2008-08-10T11:24:29Z</time>
      </trkpt>
      <trkpt lat="44.19826" lon="6.8747">
        <ele>2003.524902</ele>
        <time>2008-08-10T11:24:55Z</time>
      </trkpt>
      <trkpt lat="44.19813" lon="6.87512">
        <ele>2000.640869</ele>
        <time>2008-08-10T11:25:28Z</time>
      </trkpt>
      <trkpt lat="44.19813" lon="6.8757">
        <ele>1989.585693</ele>
        <time>2008-08-10T11:26:09Z</time>
      </trkpt>
      <trkpt lat="44.19815" lon="6.87577">
        <ele>1987.182373</ele>
        <time>2008-08-10T11:26:17Z</time>
      </trkpt>
      <trkpt lat="44.19802" lon="6.87588">
        <ele>1979.972412</ele>
        <time>2008-08-10T11:26:53Z</time>
      </trkpt>
      <trkpt lat="44.19813" lon="6.87603">
        <ele>1974.685303</ele>
        <time>2008-08-10T11:27:07Z</time>
      </trkpt>
      <trkpt lat="44.19813" lon="6.87607">
        <ele>1971.80127</ele>
        <time>2008-08-10T11:27:10Z</time>
      </trkpt>
      <trkpt lat="44.19821" lon="6.87618">
        <ele>1966.994873</ele>
        <time>2008-08-10T11:27:20Z</time>
      </trkpt>
      <trkpt lat="44.19856" lon="6.87622">
        <ele>1966.994873</ele>
        <time>2008-08-10T11:27:40Z</time>
      </trkpt>
      <trkpt lat="44.19862" lon="6.87628">
        <ele>1966.51416</ele>
        <time>2008-08-10T11:27:45Z</time>
      </trkpt>
      <trkpt lat="44.19869" lon="6.87652">
        <ele>1959.304199</ele>
        <time>2008-08-10T11:28:13Z</time>
      </trkpt>
      <trkpt lat="44.19881" lon="6.87654">
        <ele>1953.055664</ele>
        <time>2008-08-10T11:28:57Z</time>
      </trkpt>
      <trkpt lat="44.19905" lon="6.87648">
        <ele>1953.055664</ele>
        <time>2008-08-10T11:29:28Z</time>
      </trkpt>
      <trkpt lat="44.19948" lon="6.87678">
        <ele>1951.61377</ele>
        <time>2008-08-10T11:29:57Z</time>
      </trkpt>
      <trkpt lat="44.19991" lon="6.87714">
        <ele>1949.691162</ele>
        <time>2008-08-10T11:30:30Z</time>
      </trkpt>
      <trkpt lat="44.20029" lon="6.87774">
        <ele>1949.210449</ele>
        <time>2008-08-10T11:31:18Z</time>
      </trkpt>
      <trkpt lat="44.20057" lon="6.87828">
        <ele>1945.36499</ele>
        <time>2008-08-10T11:31:56Z</time>
      </trkpt>
      <trkpt lat="44.20085" lon="6.87886">
        <ele>1943.442383</ele>
        <time>2008-08-10T11:32:46Z</time>
      </trkpt>
      <trkpt lat="44.20075" lon="6.87914">
        <ele>1946.326416</ele>
        <time>2008-08-10T11:33:38Z</time>
      </trkpt>
    </trkseg>
  </trk>
</gpx>